Ardsley On Hudson, New York
Current Conditions -  °F | °C
As of 7:56 AM on Thursday 30 Oct 2014 (Local Time) from KHPN Reporting Station
Scattered Clouds Scattered Clouds  
Wind Chill: 40°   Ceiling: Unl
Heat Index: 43°   Visibility: 8mi
Dew Point: 42°   Wind: 5mph
Humidity: 97%   Direction: 300°WNW
Pressure: 29.96"   Gusts: NA
Location:  41.02°N, 73.87°W
Report Text: KHPN 301156Z 30004KT 8SM SCT100 06/06 A2996 RMK AO2 SLP150 70004 T00610056 10072 20044 53012
Loading
Personal Weather Stations






























Interactive Weather Map New forecast layout! Learn more

10-Day Weather Forecast

Advertisements
Track Severe Weather on mobile